Time;durP1;ratioP1;P1;durP2;ratioP2;P2;SDS_P1;SDS_P2;PMS_P1;PMS_P2;Temp;Humidity;BMP_temperature;BMP_pressure;BME280_temperature;BME280_humidity;BME280_pressure;Samples;Min_cycle;Max_cycle;Signal;HPM_P1;HPM_P2
2020/12/09 00:00:51;;;;;;;;;;;1.60;99.90;;;;;;5034345;28;19920;-89
2020/12/09 00:03:19;;;;;;;;;;;1.60;99.90;;;;;;5034162;28;19935;-89
2020/12/09 00:05:44;;;;;;;;;;;1.60;99.90;;;;;;5034111;28;20391;-89
2020/12/09 00:08:10;;;;;;;;;;;1.60;99.90;;;;;;5034285;28;19909;-87
2020/12/09 00:10:36;;;;;;;;;;;1.60;99.90;;;;;;5034612;28;19910;-88
2020/12/09 00:13:01;;;;;;;;;;;1.60;99.90;;;;;;5034300;28;19913;-87
2020/12/09 00:15:27;;;;;;;;;;;1.50;99.90;;;;;;5033896;28;19974;-88
2020/12/09 00:17:52;;;;;;;;;;;1.50;99.90;;;;;;5033687;28;19913;-87
2020/12/09 00:20:20;;;;;;;;;;;1.60;99.90;;;;;;5033671;28;19913;-88
2020/12/09 00:22:46;;;;;;;;;;;1.60;99.90;;;;;;5033415;28;19988;-87
2020/12/09 00:25:11;;;;;;;;;;;1.60;99.90;;;;;;5033821;28;20372;-89
2020/12/09 00:27:37;;;;;;;;;;;1.60;99.90;;;;;;5033578;28;19916;-88
2020/12/09 00:30:08;;;;;;;;;;;1.60;99.90;;;;;;5034521;28;19968;-88
2020/12/09 00:32:35;;;;;;;;;;;1.60;99.90;;;;;;5033464;28;19913;-88
2020/12/09 00:35:00;;;;;;;;;;;1.60;99.90;;;;;;5033375;28;19916;-88
2020/12/09 00:37:26;;;;;;;;;;;1.60;99.90;;;;;;5033617;28;19917;-87
2020/12/09 00:39:51;;;;;;;;;;;1.60;99.90;;;;;;5033430;28;19925;-88
2020/12/09 00:42:17;;;;;;;;;;;1.60;99.90;;;;;;5033577;28;20360;-87
2020/12/09 00:44:42;;;;;;;;;;;1.60;99.90;;;;;;5033607;28;19964;-88
2020/12/09 00:47:11;;;;;;;;;;;1.60;99.90;;;;;;5033483;28;20360;-87
2020/12/09 00:52:21;;;;;;;;;;;1.60;99.90;;;;;;5034676;28;19976;-89
2020/12/09 00:54:46;;;;;;;;;;;1.60;99.90;;;;;;5033490;28;19959;-88
2020/12/09 00:57:12;;;;;;;;;;;1.60;99.90;;;;;;5033349;28;20007;-87
2020/12/09 00:59:40;;;;;;;;;;;1.60;99.90;;;;;;5032997;28;19909;-87
2020/12/09 01:02:05;;;;;;;;;;;1.60;99.90;;;;;;5032925;28;19996;-88
2020/12/09 01:04:31;;;;;;;;;;;1.60;99.90;;;;;;5033168;28;19972;-87
2020/12/09 01:06:59;;;;;;;;;;;1.60;99.90;;;;;;5033045;28;19960;-88
2020/12/09 01:09:27;;;;;;;;;;;1.60;99.90;;;;;;5032886;28;19948;-88
2020/12/09 01:11:59;;;;;;;;;;;1.60;99.90;;;;;;5032863;28;19932;-87
2020/12/09 01:14:25;;;;;;;;;;;1.60;99.90;;;;;;5034021;28;19909;-86
2020/12/09 01:16:52;;;;;;;;;;;1.60;99.90;;;;;;5033117;28;19909;-87
2020/12/09 01:19:18;;;;;;;;;;;1.60;99.90;;;;;;5032895;28;20428;-87
2020/12/09 01:21:43;;;;;;;;;;;1.60;99.90;;;;;;5032766;28;20031;-86
2020/12/09 01:24:09;;;;;;;;;;;1.60;99.90;;;;;;5032917;28;20008;-87
2020/12/09 01:26:37;;;;;;;;;;;1.60;99.90;;;;;;5032835;28;19996;-87
2020/12/09 01:29:05;;;;;;;;;;;1.60;99.90;;;;;;5032713;28;19909;-88
2020/12/09 01:31:30;;;;;;;;;;;1.70;99.90;;;;;;5032841;28;20272;-88
2020/12/09 01:33:58;;;;;;;;;;;1.70;99.90;;;;;;5031998;28;19909;-87
2020/12/09 01:36:26;;;;;;;;;;;1.70;99.90;;;;;;5032643;28;19908;-87
2020/12/09 01:38:52;;;;;;;;;;;1.70;99.90;;;;;;5032527;28;19932;-88
2020/12/09 01:41:18;;;;;;;;;;;1.70;99.90;;;;;;5032397;28;19917;-88
2020/12/09 01:43:45;;;;;;;;;;;1.70;99.90;;;;;;5032428;28;19910;-87
2020/12/09 01:46:14;;;;;;;;;;;1.70;99.90;;;;;;5032599;28;19916;-87
2020/12/09 01:48:40;;;;;;;;;;;1.70;99.90;;;;;;5032517;28;19909;-87
2020/12/09 01:51:06;;;;;;;;;;;1.80;99.90;;;;;;5032592;28;20278;-86
2020/12/09 01:53:33;;;;;;;;;;;1.80;99.90;;;;;;5032915;28;19913;-89
2020/12/09 01:55:59;;;;;;;;;;;1.70;99.90;;;;;;5032500;28;19913;-88
2020/12/09 01:58:24;;;;;;;;;;;1.70;99.90;;;;;;5032606;28;20295;-89
2020/12/09 02:00:52;;;;;;;;;;;1.80;99.90;;;;;;5032602;28;20341;-87
2020/12/09 02:03:18;;;;;;;;;;;1.70;99.90;;;;;;5032475;28;19956;-87
2020/12/09 02:05:46;;;;;;;;;;;1.80;99.90;;;;;;5032522;28;19916;-87
2020/12/09 02:08:14;;;;;;;;;;;1.70;99.90;;;;;;5032254;28;19916;-86
2020/12/09 02:10:39;;;;;;;;;;;1.70;99.90;;;;;;5032288;28;19909;-86
2020/12/09 02:13:05;;;;;;;;;;;1.80;99.90;;;;;;5032292;28;20365;-87
2020/12/09 02:15:30;;;;;;;;;;;1.80;99.90;;;;;;5032350;28;20044;-86
2020/12/09 02:17:58;;;;;;;;;;;1.70;99.90;;;;;;5032210;28;19963;-86
2020/12/09 02:20:24;;;;;;;;;;;1.80;99.90;;;;;;5032328;28;19913;-87
2020/12/09 02:22:53;;;;;;;;;;;1.80;99.90;;;;;;5032239;28;19909;-87
2020/12/09 02:25:24;;;;;;;;;;;1.80;99.90;;;;;;5032075;28;19916;-85
2020/12/09 02:27:52;;;;;;;;;;;1.70;99.90;;;;;;5032239;28;19909;-89
2020/12/09 02:30:17;;;;;;;;;;;1.80;99.90;;;;;;5032225;28;19909;-85
2020/12/09 02:32:43;;;;;;;;;;;1.80;99.90;;;;;;5032484;28;20382;-87
2020/12/09 02:35:08;;;;;;;;;;;1.80;99.90;;;;;;5032115;28;20355;-89
2020/12/09 02:37:36;;;;;;;;;;;1.80;99.90;;;;;;5032219;28;19960;-87
2020/12/09 02:40:03;;;;;;;;;;;1.80;99.90;;;;;;5031884;28;19933;-87
2020/12/09 02:42:31;;;;;;;;;;;1.80;99.90;;;;;;5032531;28;19915;-85
2020/12/09 02:44:59;;;;;;;;;;;1.80;99.90;;;;;;5033978;28;19916;-88
2020/12/09 02:47:24;;;;;;;;;;;1.80;99.90;;;;;;5035438;28;20360;-85
2020/12/09 02:49:50;;;;;;;;;;;1.80;99.90;;;;;;5035367;28;19996;-87
2020/12/09 02:52:15;;;;;;;;;;;1.80;99.90;;;;;;5035324;28;19909;-87
2020/12/09 02:54:43;;;;;;;;;;;1.80;99.90;;;;;;5035479;28;20238;-87
2020/12/09 02:57:09;;;;;;;;;;;1.80;99.90;;;;;;5036277;28;19991;-87
2020/12/09 02:59:34;;;;;;;;;;;1.80;99.90;;;;;;5035288;28;20391;-87
2020/12/09 03:02:00;;;;;;;;;;;1.80;99.90;;;;;;5035256;28;19916;-88
2020/12/09 03:04:25;;;;;;;;;;;1.90;99.90;;;;;;5035210;28;19959;-87
2020/12/09 03:06:53;;;;;;;;;;;1.80;99.90;;;;;;5035171;28;20003;-87
2020/12/09 03:09:19;;;;;;;;;;;1.90;99.90;;;;;;5035457;28;19909;-88
2020/12/09 03:11:44;;;;;;;;;;;1.80;99.90;;;;;;5035368;28;20388;-87
2020/12/09 03:14:12;;;;;;;;;;;1.80;99.90;;;;;;5034915;28;19909;-88
2020/12/09 03:16:37;;;;;;;;;;;1.90;99.90;;;;;;5035168;28;19909;-87
2020/12/09 03:19:03;;;;;;;;;;;1.90;99.90;;;;;;5034973;28;19917;-88
2020/12/09 03:21:32;;;;;;;;;;;1.90;99.90;;;;;;5034942;28;19909;-88
2020/12/09 03:23:58;;;;;;;;;;;1.90;99.90;;;;;;5035176;28;19909;-86
2020/12/09 03:26:26;;;;;;;;;;;1.90;99.90;;;;;;5034985;28;20050;-86
2020/12/09 03:28:52;;;;;;;;;;;1.90;99.90;;;;;;5034923;28;19983;-86
2020/12/09 03:31:18;;;;;;;;;;;1.90;99.90;;;;;;5034661;28;20008;-87
2020/12/09 03:33:44;;;;;;;;;;;1.90;99.90;;;;;;5034630;28;19909;-85
2020/12/09 03:36:12;;;;;;;;;;;1.90;99.90;;;;;;5034555;28;19913;-85
2020/12/09 03:38:37;;;;;;;;;;;1.90;99.90;;;;;;5034486;28;19967;-85
2020/12/09 03:41:05;;;;;;;;;;;1.90;99.90;;;;;;5034832;28;19909;-84
2020/12/09 03:43:31;;;;;;;;;;;1.90;99.90;;;;;;5034597;28;19935;-88
2020/12/09 03:45:59;;;;;;;;;;;1.90;99.90;;;;;;5034783;28;19909;-85
2020/12/09 03:48:24;;;;;;;;;;;1.90;99.90;;;;;;5034532;28;19974;-86
2020/12/09 03:50:50;;;;;;;;;;;1.90;99.90;;;;;;5034117;28;19909;-85
2020/12/09 03:53:15;;;;;;;;;;;1.90;99.90;;;;;;5034584;28;20007;-85
2020/12/09 03:55:41;;;;;;;;;;;1.90;99.90;;;;;;5033849;28;19949;-85
2020/12/09 03:58:09;;;;;;;;;;;1.90;99.90;;;;;;5034455;28;19942;-86
2020/12/09 04:00:37;;;;;;;;;;;1.90;99.90;;;;;;5034323;28;19913;-87
2020/12/09 04:03:03;;;;;;;;;;;1.90;99.90;;;;;;5034018;28;19916;-86
2020/12/09 04:05:28;;;;;;;;;;;1.90;99.90;;;;;;5034051;28;19999;-86
2020/12/09 04:07:56;;;;;;;;;;;1.90;99.90;;;;;;5034264;28;19996;-87
2020/12/09 04:10:26;;;;;;;;;;;1.90;99.90;;;;;;5017361;28;22094;-87
2020/12/09 04:12:53;;;;;;;;;;;1.90;99.90;;;;;;5034033;28;19913;-87
2020/12/09 04:15:19;;;;;;;;;;;1.90;99.90;;;;;;5033733;28;19909;-87
2020/12/09 04:17:44;;;;;;;;;;;1.90;99.90;;;;;;5033532;28;20336;-86
2020/12/09 04:20:12;;;;;;;;;;;1.90;99.90;;;;;;5033975;28;19921;-86
2020/12/09 04:22:38;;;;;;;;;;;1.90;99.90;;;;;;5033889;28;19920;-86
2020/12/09 04:25:04;;;;;;;;;;;1.90;99.90;;;;;;5033663;28;19909;-87
2020/12/09 04:27:30;;;;;;;;;;;1.90;99.90;;;;;;5033793;28;19967;-87
2020/12/09 04:29:56;;;;;;;;;;;1.90;99.90;;;;;;5033494;28;19916;-86
2020/12/09 04:32:21;;;;;;;;;;;2.00;99.90;;;;;;5033513;28;19913;-86
2020/12/09 04:34:47;;;;;;;;;;;1.90;99.90;;;;;;5033693;28;19959;-85
2020/12/09 04:37:12;;;;;;;;;;;1.90;99.90;;;;;;5033590;28;19963;-88
2020/12/09 04:39:38;;;;;;;;;;;1.90;99.90;;;;;;5029035;28;19925;-86
2020/12/09 04:42:04;;;;;;;;;;;1.90;99.90;;;;;;5037573;28;19930;-87
2020/12/09 04:44:32;;;;;;;;;;;1.90;99.90;;;;;;5020557;28;20324;-86
2020/12/09 04:47:02;;;;;;;;;;;1.90;99.90;;;;;;5028919;28;19909;-87
2020/12/09 04:49:34;;;;;;;;;;;1.90;99.90;;;;;;5032674;28;19909;-90
2020/12/09 04:52:00;;;;;;;;;;;1.90;99.90;;;;;;5032788;28;19909;-89
2020/12/09 04:54:35;;;;;;;;;;;2.10;99.90;;;;;;5032296;28;19987;-90
2020/12/09 04:57:06;;;;;;;;;;;2.20;99.90;;;;;;5032558;28;19931;-91
2020/12/09 04:59:37;;;;;;;;;;;2.20;99.90;;;;;;5032487;28;19921;-86
2020/12/09 05:02:13;;;;;;;;;;;2.20;99.90;;;;;;5032455;28;19909;-85
2020/12/09 05:04:39;;;;;;;;;;;2.10;99.90;;;;;;5026623;28;19918;-88
2020/12/09 05:07:08;;;;;;;;;;;2.10;99.90;;;;;;5022885;28;20433;-85
2020/12/09 05:09:38;;;;;;;;;;;2.00;99.90;;;;;;5022176;28;19993;-87
2020/12/09 05:12:06;;;;;;;;;;;2.00;99.90;;;;;;5022012;28;19910;-86
2020/12/09 05:14:34;;;;;;;;;;;2.00;99.90;;;;;;5021887;28;20351;-86
2020/12/09 05:17:03;;;;;;;;;;;2.00;99.90;;;;;;5022910;28;19910;-86
2020/12/09 05:19:31;;;;;;;;;;;2.00;99.90;;;;;;5023994;28;20067;-85
2020/12/09 05:21:58;;;;;;;;;;;2.00;99.90;;;;;;5031047;28;19909;-86
2020/12/09 05:24:23;;;;;;;;;;;2.00;99.90;;;;;;5031690;28;19940;-87
2020/12/09 05:26:51;;;;;;;;;;;2.00;99.90;;;;;;5031947;28;20430;-85
2020/12/09 05:29:17;;;;;;;;;;;1.90;99.90;;;;;;5031999;28;19909;-85
2020/12/09 05:31:47;;;;;;;;;;;1.90;99.90;;;;;;5031789;28;20016;-85
2020/12/09 05:34:22;;;;;;;;;;;2.00;99.90;;;;;;5032989;28;20348;-85
2020/12/09 05:37:06;;;;;;;;;;;2.00;99.90;;;;;;5031691;28;19913;-86
2020/12/09 05:39:49;;;;;;;;;;;2.00;99.90;;;;;;4985232;28;1328150;-86
2020/12/09 05:42:16;;;;;;;;;;;2.00;99.90;;;;;;5033708;28;20241;-87
2020/12/09 05:44:46;;;;;;;;;;;2.00;99.90;;;;;;5032531;28;19920;-86
2020/12/09 05:47:12;;;;;;;;;;;2.00;99.90;;;;;;5032714;28;19956;-87
2020/12/09 05:49:39;;;;;;;;;;;2.00;99.90;;;;;;5032379;28;19910;-85
2020/12/09 05:52:16;;;;;;;;;;;2.00;99.90;;;;;;5032593;28;19913;-85
2020/12/09 05:54:46;;;;;;;;;;;2.00;99.90;;;;;;5032519;28;19920;-86
2020/12/09 05:57:16;;;;;;;;;;;1.90;99.90;;;;;;5032508;28;19913;-85
2020/12/09 05:59:47;;;;;;;;;;;1.90;99.90;;;;;;5032303;28;19928;-86
2020/12/09 06:02:13;;;;;;;;;;;2.00;99.90;;;;;;5032415;28;19953;-88
2020/12/09 06:04:42;;;;;;;;;;;1.90;99.90;;;;;;5032440;28;20078;-86
2020/12/09 06:07:09;;;;;;;;;;;1.90;99.90;;;;;;5032232;28;20042;-86
2020/12/09 06:09:37;;;;;;;;;;;1.90;99.90;;;;;;5032600;28;19916;-86
2020/12/09 06:12:03;;;;;;;;;;;1.90;99.90;;;;;;5032203;28;19909;-85
2020/12/09 06:14:28;;;;;;;;;;;1.90;99.90;;;;;;5032035;28;20398;-86
2020/12/09 06:16:54;;;;;;;;;;;1.90;99.90;;;;;;5033358;28;20289;-86
2020/12/09 06:19:19;;;;;;;;;;;1.90;99.90;;;;;;5033242;28;19936;-85
2020/12/09 06:21:45;;;;;;;;;;;1.90;99.90;;;;;;5036161;28;19917;-86
2020/12/09 06:24:10;;;;;;;;;;;1.90;99.90;;;;;;5036230;28;19909;-85
2020/12/09 06:26:38;;;;;;;;;;;1.90;99.90;;;;;;5036353;28;20005;-85
2020/12/09 06:29:06;;;;;;;;;;;1.90;99.90;;;;;;5035776;28;19910;-87
2020/12/09 06:31:34;;;;;;;;;;;1.90;99.90;;;;;;5035945;28;20353;-87
2020/12/09 06:34:00;;;;;;;;;;;1.90;99.90;;;;;;5036124;28;19909;-86
2020/12/09 06:36:28;;;;;;;;;;;1.90;99.90;;;;;;5035765;28;19969;-85
2020/12/09 06:39:06;;;;;;;;;;;2.00;99.90;;;;;;5035307;28;19982;-86
2020/12/09 06:41:37;;;;;;;;;;;1.90;99.90;;;;;;5035587;28;20292;-84
2020/12/09 06:44:06;;;;;;;;;;;2.00;99.90;;;;;;5035723;28;19909;-87
2020/12/09 06:46:39;;;;;;;;;;;2.00;99.90;;;;;;5036661;28;19921;-87
2020/12/09 06:49:05;;;;;;;;;;;2.00;99.90;;;;;;5035610;28;20312;-86
2020/12/09 06:51:38;;;;;;;;;;;2.00;99.90;;;;;;5035383;28;19995;-86
2020/12/09 06:54:10;;;;;;;;;;;2.00;99.90;;;;;;5035580;28;19909;-87
2020/12/09 06:56:36;;;;;;;;;;;2.00;99.90;;;;;;5035519;28;19919;-85
2020/12/09 06:59:20;;;;;;;;;;;2.00;99.90;;;;;;5035261;28;19917;-85
2020/12/09 07:02:02;;;;;;;;;;;2.00;99.90;;;;;;5035339;28;20375;-83
2020/12/09 07:04:49;;;;;;;;;;;2.00;99.90;;;;;;5035267;28;19917;-86
2020/12/09 07:07:44;;;;;;;;;;;2.00;99.90;;;;;;5035361;28;19948;-86
2020/12/09 07:10:22;;;;;;;;;;;2.00;99.90;;;;;;5026221;28;19967;-86
2020/12/09 07:12:49;;;;;;;;;;;2.00;99.90;;;;;;5034699;28;19955;-83
2020/12/09 07:15:15;;;;;;;;;;;2.00;99.90;;;;;;5035120;28;19909;-85
2020/12/09 07:17:41;;;;;;;;;;;2.10;99.90;;;;;;5034834;28;19914;-83
2020/12/09 07:20:09;;;;;;;;;;;2.10;99.90;;;;;;5034877;28;19913;-86
2020/12/09 07:22:36;;;;;;;;;;;2.10;99.90;;;;;;5027174;28;19917;-84
2020/12/09 07:25:07;;;;;;;;;;;2.10;99.90;;;;;;5024736;28;19917;-85
2020/12/09 07:27:35;;;;;;;;;;;2.10;99.90;;;;;;5022908;28;19953;-88
2020/12/09 07:30:07;;;;;;;;;;;2.10;99.90;;;;;;5024871;28;19916;-87
2020/12/09 07:32:32;;;;;;;;;;;2.10;99.90;;;;;;5024653;28;20443;-87
2020/12/09 07:35:03;;;;;;;;;;;2.10;99.90;;;;;;5025790;28;19909;-86
2020/12/09 07:37:31;;;;;;;;;;;2.10;99.90;;;;;;5025050;28;20010;-86
2020/12/09 07:40:00;;;;;;;;;;;2.10;99.90;;;;;;5024011;28;19929;-87
2020/12/09 07:42:26;;;;;;;;;;;2.20;99.90;;;;;;5023529;28;19965;-89
2020/12/09 07:44:52;;;;;;;;;;;2.20;99.90;;;;;;5025195;28;19913;-87
2020/12/09 07:47:27;;;;;;;;;;;2.20;99.90;;;;;;5024153;28;19944;-84
2020/12/09 07:49:57;;;;;;;;;;;2.20;99.90;;;;;;5023304;28;19932;-84
2020/12/09 07:52:24;;;;;;;;;;;2.20;99.90;;;;;;5023789;28;19909;-84
2020/12/09 07:54:59;;;;;;;;;;;2.20;99.90;;;;;;5025231;28;19915;-84
2020/12/09 07:57:32;;;;;;;;;;;2.30;99.90;;;;;;5022297;28;19909;-84
2020/12/09 07:59:58;;;;;;;;;;;2.20;99.90;;;;;;5014318;28;19910;-84
2020/12/09 08:02:27;;;;;;;;;;;2.20;99.90;;;;;;5014409;28;20373;-84
2020/12/09 08:05:08;;;;;;;;;;;2.30;99.90;;;;;;5014137;28;20268;-84
2020/12/09 08:07:36;;;;;;;;;;;2.30;99.90;;;;;;5014436;28;19910;-83
2020/12/09 08:10:09;;;;;;;;;;;2.30;99.90;;;;;;5014376;28;19917;-86
2020/12/09 08:12:36;;;;;;;;;;;2.30;99.90;;;;;;5014224;28;20324;-86
2020/12/09 08:15:04;;;;;;;;;;;2.30;99.90;;;;;;5014165;28;19936;-87
2020/12/09 08:17:30;;;;;;;;;;;2.40;99.90;;;;;;5013823;28;19916;-87
2020/12/09 08:20:06;;;;;;;;;;;2.30;99.90;;;;;;5014274;28;19910;-86
2020/12/09 08:22:37;;;;;;;;;;;2.30;99.90;;;;;;5020392;28;19980;-84
2020/12/09 08:25:07;;;;;;;;;;;2.40;99.90;;;;;;5024757;28;20044;-87
2020/12/09 08:27:40;;;;;;;;;;;2.40;99.90;;;;;;5033471;28;19916;-86
2020/12/09 08:30:09;;;;;;;;;;;2.40;99.90;;;;;;5033833;28;20008;-86
2020/12/09 08:32:52;;;;;;;;;;;2.40;99.90;;;;;;5033679;28;20281;-87
2020/12/09 08:35:18;;;;;;;;;;;2.40;99.90;;;;;;5033681;28;19909;-86
2020/12/09 08:37:46;;;;;;;;;;;2.40;99.90;;;;;;5033401;28;19909;-86
2020/12/09 08:40:16;;;;;;;;;;;2.40;99.90;;;;;;5033113;28;19940;-85
2020/12/09 08:42:51;;;;;;;;;;;2.40;99.90;;;;;;5025762;28;19917;-86
2020/12/09 08:45:19;;;;;;;;;;;2.40;99.90;;;;;;5022250;28;19909;-87
2020/12/09 08:47:47;;;;;;;;;;;2.40;99.90;;;;;;5022697;28;19939;-87
2020/12/09 08:50:13;;;;;;;;;;;2.40;99.90;;;;;;5029882;28;19916;-86
2020/12/09 08:52:43;;;;;;;;;;;2.50;99.90;;;;;;5021442;28;19913;-85
2020/12/09 08:55:11;;;;;;;;;;;2.40;99.90;;;;;;5013930;28;20250;-85
2020/12/09 08:57:37;;;;;;;;;;;2.40;99.90;;;;;;5013209;28;19933;-84
2020/12/09 09:00:04;;;;;;;;;;;2.50;99.90;;;;;;5013400;28;19909;-88
2020/12/09 09:02:29;;;;;;;;;;;2.50;99.90;;;;;;5013463;28;19941;-87
2020/12/09 09:04:55;;;;;;;;;;;2.50;99.90;;;;;;5013392;28;19960;-86
2020/12/09 09:07:23;;;;;;;;;;;2.50;99.90;;;;;;5013057;28;19910;-86
2020/12/09 09:09:51;;;;;;;;;;;2.50;99.90;;;;;;5013416;28;19951;-84
2020/12/09 09:12:17;;;;;;;;;;;2.50;99.90;;;;;;5013236;28;20400;-86
2020/12/09 09:14:43;;;;;;;;;;;2.50;99.90;;;;;;5013174;28;19910;-87
2020/12/09 09:17:09;;;;;;;;;;;2.60;99.90;;;;;;5013068;28;20415;-87
2020/12/09 09:19:34;;;;;;;;;;;2.50;99.90;;;;;;5012961;28;19965;-87
2020/12/09 09:22:02;;;;;;;;;;;2.60;99.90;;;;;;5012902;28;19909;-88
2020/12/09 09:24:28;;;;;;;;;;;2.50;99.90;;;;;;5013168;28;19916;-85
2020/12/09 09:26:54;;;;;;;;;;;2.60;99.90;;;;;;5013172;28;20008;-87
2020/12/09 09:29:19;;;;;;;;;;;2.60;99.90;;;;;;5013014;28;20071;-87
2020/12/09 09:31:47;;;;;;;;;;;2.60;99.90;;;;;;5014327;28;19948;-86
2020/12/09 09:34:12;;;;;;;;;;;2.60;99.90;;;;;;5013304;28;19969;-86
2020/12/09 09:36:41;;;;;;;;;;;2.60;99.90;;;;;;5013003;28;19909;-84
2020/12/09 09:39:09;;;;;;;;;;;2.60;99.90;;;;;;5012866;28;19922;-85
2020/12/09 09:41:39;;;;;;;;;;;2.60;99.90;;;;;;5013087;28;19909;-84
2020/12/09 09:44:09;;;;;;;;;;;2.70;99.90;;;;;;5012954;28;19996;-85
2020/12/09 09:46:35;;;;;;;;;;;2.70;99.90;;;;;;5012791;28;19913;-85
2020/12/09 09:49:03;;;;;;;;;;;2.70;99.90;;;;;;5012754;28;19963;-87
2020/12/09 09:51:28;;;;;;;;;;;2.70;99.90;;;;;;5012996;28;19917;-87
2020/12/09 09:53:54;;;;;;;;;;;2.70;99.90;;;;;;5013020;28;19910;-84
2020/12/09 09:56:22;;;;;;;;;;;2.70;99.90;;;;;;5017074;28;19932;-85
2020/12/09 09:58:47;;;;;;;;;;;2.70;99.90;;;;;;5016710;28;20004;-85
2020/12/09 10:01:18;;;;;;;;;;;2.70;99.90;;;;;;5016586;28;20009;-85
2020/12/09 10:03:44;;;;;;;;;;;2.80;99.90;;;;;;5017490;28;19909;-85
2020/12/09 10:06:09;;;;;;;;;;;2.70;99.90;;;;;;5016657;28;19909;-84
2020/12/09 10:08:35;;;;;;;;;;;2.80;99.90;;;;;;5016597;28;19956;-84
2020/12/09 10:11:02;;;;;;;;;;;2.80;99.90;;;;;;5016525;28;19975;-85
2020/12/09 10:13:27;;;;;;;;;;;2.80;99.90;;;;;;5016734;28;20373;-85
2020/12/09 10:15:53;;;;;;;;;;;2.80;99.90;;;;;;5016461;28;19917;-85
2020/12/09 10:18:21;;;;;;;;;;;2.80;99.90;;;;;;5017528;28;19913;-86
2020/12/09 10:20:46;;;;;;;;;;;2.80;99.90;;;;;;5016584;28;19955;-85
2020/12/09 10:23:15;;;;;;;;;;;2.80;99.90;;;;;;5016199;28;19910;-84
2020/12/09 10:25:40;;;;;;;;;;;2.80;99.90;;;;;;5016224;28;19909;-85
2020/12/09 10:28:09;;;;;;;;;;;2.80;99.90;;;;;;5017292;28;19996;-86
2020/12/09 10:30:35;;;;;;;;;;;2.80;99.90;;;;;;5015684;28;19909;-86
2020/12/09 10:33:00;;;;;;;;;;;2.80;99.90;;;;;;5015690;28;19958;-86
2020/12/09 10:35:28;;;;;;;;;;;2.80;99.90;;;;;;5015963;28;19917;-85
2020/12/09 10:37:54;;;;;;;;;;;2.80;99.90;;;;;;5017059;28;19913;-87
2020/12/09 10:40:19;;;;;;;;;;;2.80;99.90;;;;;;5015624;28;20278;-85
2020/12/09 10:42:45;;;;;;;;;;;2.80;99.90;;;;;;5016200;28;19941;-85
2020/12/09 10:45:10;;;;;;;;;;;2.80;99.90;;;;;;5015911;28;19977;-85
2020/12/09 10:47:36;;;;;;;;;;;2.80;99.90;;;;;;5016129;28;19916;-84
2020/12/09 10:50:04;;;;;;;;;;;2.80;99.90;;;;;;5015997;28;20126;-84
2020/12/09 10:52:30;;;;;;;;;;;2.80;99.90;;;;;;5015931;28;19910;-85
2020/12/09 10:55:03;;;;;;;;;;;2.80;99.90;;;;;;5015814;28;19914;-84
2020/12/09 10:57:28;;;;;;;;;;;2.80;99.90;;;;;;5015624;28;19909;-86
2020/12/09 10:59:56;;;;;;;;;;;2.90;99.90;;;;;;5016440;28;20013;-86
2020/12/09 11:02:24;;;;;;;;;;;2.90;99.90;;;;;;5015655;28;19914;-84
2020/12/09 11:04:49;;;;;;;;;;;2.90;99.90;;;;;;5015162;28;19910;-85
2020/12/09 11:07:17;;;;;;;;;;;2.90;99.90;;;;;;5015567;28;19910;-87
2020/12/09 11:09:45;;;;;;;;;;;2.90;99.90;;;;;;5015298;28;19909;-85
2020/12/09 11:12:11;;;;;;;;;;;2.90;99.90;;;;;;5015338;28;19917;-85
2020/12/09 11:14:39;;;;;;;;;;;2.90;99.90;;;;;;5015242;28;19909;-86
2020/12/09 11:17:04;;;;;;;;;;;3.00;99.90;;;;;;5015572;28;20018;-85
2020/12/09 11:19:31;;;;;;;;;;;3.00;99.90;;;;;;5015305;28;19918;-85
2020/12/09 11:21:56;;;;;;;;;;;3.00;99.90;;;;;;5015405;28;19917;-85
2020/12/09 11:24:22;;;;;;;;;;;3.00;99.90;;;;;;5015403;28;19909;-85
2020/12/09 11:26:50;;;;;;;;;;;3.10;99.90;;;;;;5015048;28;19909;-84
2020/12/09 11:29:16;;;;;;;;;;;3.00;99.90;;;;;;5014976;28;19964;-86
2020/12/09 11:31:44;;;;;;;;;;;3.10;99.90;;;;;;5015142;28;19913;-85
2020/12/09 11:34:09;;;;;;;;;;;3.10;99.90;;;;;;5014950;28;20412;-84
2020/12/09 11:36:35;;;;;;;;;;;3.10;99.90;;;;;;5014762;28;19914;-84
2020/12/09 11:39:00;;;;;;;;;;;3.10;99.90;;;;;;5014649;28;19922;-86
2020/12/09 11:41:27;;;;;;;;;;;3.10;99.90;;;;;;5014944;28;19963;-88
2020/12/09 11:43:58;;;;;;;;;;;3.10;99.90;;;;;;5014826;28;19921;-88
2020/12/09 11:46:29;;;;;;;;;;;3.10;99.90;;;;;;5015076;28;19910;-87
2020/12/09 11:48:55;;;;;;;;;;;3.10;99.90;;;;;;5014650;28;19909;-86
2020/12/09 11:51:23;;;;;;;;;;;3.20;99.90;;;;;;5014580;28;19916;-88
2020/12/09 11:53:54;;;;;;;;;;;3.10;99.90;;;;;;5014658;28;20496;-86
2020/12/09 11:56:20;;;;;;;;;;;3.10;99.90;;;;;;5015727;28;19913;-86
2020/12/09 11:58:46;;;;;;;;;;;3.10;99.90;;;;;;5014857;28;20387;-86
2020/12/09 12:01:12;;;;;;;;;;;3.20;99.90;;;;;;5014602;28;20186;-87
2020/12/09 12:03:39;;;;;;;;;;;3.20;99.90;;;;;;5014705;28;19937;-87
2020/12/09 12:06:05;;;;;;;;;;;3.10;99.90;;;;;;5014239;28;19910;-86
2020/12/09 12:08:31;;;;;;;;;;;3.10;99.90;;;;;;5014459;28;19916;-86
2020/12/09 12:10:58;;;;;;;;;;;3.10;99.90;;;;;;5014059;28;19917;-86
2020/12/09 12:13:24;;;;;;;;;;;3.10;99.90;;;;;;5014203;28;19920;-86
2020/12/09 12:15:52;;;;;;;;;;;3.10;99.90;;;;;;5014369;28;19910;-86
2020/12/09 12:18:17;;;;;;;;;;;3.10;99.90;;;;;;5013575;28;20353;-87
2020/12/09 12:20:43;;;;;;;;;;;3.10;99.90;;;;;;5013885;28;19947;-87
2020/12/09 12:23:08;;;;;;;;;;;3.10;99.90;;;;;;5014068;28;19909;-86
2020/12/09 12:25:36;;;;;;;;;;;3.10;99.90;;;;;;5015264;28;19909;-87
2020/12/09 12:28:04;;;;;;;;;;;3.10;99.90;;;;;;5014169;28;19920;-86
2020/12/09 12:30:30;;;;;;;;;;;3.10;99.90;;;;;;5013844;28;19948;-87
2020/12/09 12:32:55;;;;;;;;;;;3.10;99.90;;;;;;5014020;28;19998;-88
2020/12/09 12:35:21;;;;;;;;;;;3.20;99.90;;;;;;5014170;28;20387;-87
2020/12/09 12:37:48;;;;;;;;;;;3.20;99.90;;;;;;5013667;28;20435;-87
2020/12/09 12:40:14;;;;;;;;;;;3.20;99.90;;;;;;5013634;28;20288;-87
2020/12/09 12:42:42;;;;;;;;;;;3.20;99.90;;;;;;5014271;28;19910;-88
2020/12/09 12:45:08;;;;;;;;;;;3.20;99.90;;;;;;5015270;28;19956;-87
2020/12/09 12:47:33;;;;;;;;;;;3.20;99.90;;;;;;5014006;28;19910;-87
2020/12/09 12:49:59;;;;;;;;;;;3.20;99.90;;;;;;5013917;28;19910;-84
2020/12/09 12:52:27;;;;;;;;;;;3.20;99.90;;;;;;5013771;28;20004;-86
2020/12/09 12:54:55;;;;;;;;;;;3.20;99.90;;;;;;5013918;28;19909;-87
2020/12/09 12:57:24;;;;;;;;;;;3.20;99.90;;;;;;5013853;28;19913;-87
2020/12/09 12:59:50;;;;;;;;;;;3.20;99.90;;;;;;5013733;28;19967;-87
2020/12/09 13:02:20;;;;;;;;;;;3.20;99.90;;;;;;5013925;28;19909;-87
2020/12/09 13:04:45;;;;;;;;;;;3.20;99.90;;;;;;5014753;28;20353;-87
2020/12/09 13:07:13;;;;;;;;;;;3.20;99.90;;;;;;5014831;28;19920;-88
2020/12/09 13:09:39;;;;;;;;;;;3.20;99.90;;;;;;5013845;28;19910;-87
2020/12/09 13:12:04;;;;;;;;;;;3.20;99.90;;;;;;5013759;28;19917;-87
2020/12/09 13:14:30;;;;;;;;;;;3.20;99.90;;;;;;5013879;28;19956;-87
2020/12/09 13:16:56;;;;;;;;;;;3.20;99.90;;;;;;5013498;28;20000;-86
2020/12/09 13:19:23;;;;;;;;;;;3.20;99.90;;;;;;5013470;28;19972;-87
2020/12/09 13:21:49;;;;;;;;;;;3.30;99.90;;;;;;5013326;28;19953;-87
2020/12/09 13:24:19;;;;;;;;;;;3.20;99.90;;;;;;5013532;28;19917;-87
2020/12/09 13:26:45;;;;;;;;;;;3.20;99.90;;;;;;5013538;28;19910;-88
2020/12/09 13:29:13;;;;;;;;;;;3.20;99.90;;;;;;5013497;28;19921;-87
2020/12/09 13:31:39;;;;;;;;;;;3.20;99.90;;;;;;5014332;28;19955;-87
2020/12/09 13:34:10;;;;;;;;;;;3.20;99.90;;;;;;5013280;28;19909;-87
2020/12/09 13:36:38;;;;;;;;;;;3.20;99.90;;;;;;5013470;28;20387;-87
2020/12/09 13:39:04;;;;;;;;;;;3.20;99.90;;;;;;5013341;28;19925;-87
2020/12/09 13:41:30;;;;;;;;;;;3.20;99.90;;;;;;5013472;28;20059;-87
2020/12/09 13:43:58;;;;;;;;;;;3.30;99.90;;;;;;5013340;28;19909;-85
2020/12/09 13:46:26;;;;;;;;;;;3.30;99.90;;;;;;5013428;28;19914;-86
2020/12/09 13:48:56;;;;;;;;;;;3.30;99.90;;;;;;5013351;28;19953;-87
2020/12/09 13:51:24;;;;;;;;;;;3.30;99.90;;;;;;5013390;28;19976;-87
2020/12/09 13:53:52;;;;;;;;;;;3.20;99.90;;;;;;5013597;28;19916;-86
2020/12/09 13:56:24;;;;;;;;;;;3.20;99.90;;;;;;5013051;28;19996;-86
2020/12/09 13:58:52;;;;;;;;;;;3.20;99.90;;;;;;5012895;28;20423;-86
2020/12/09 14:01:17;;;;;;;;;;;3.20;99.90;;;;;;5012979;28;19976;-86
2020/12/09 14:03:45;;;;;;;;;;;3.20;99.90;;;;;;5013238;28;19910;-87
2020/12/09 14:06:11;;;;;;;;;;;3.20;99.90;;;;;;5014172;28;19971;-86
2020/12/09 14:08:39;;;;;;;;;;;3.20;99.90;;;;;;5013180;28;19913;-86
2020/12/09 14:11:04;;;;;;;;;;;3.20;99.90;;;;;;5012947;28;20373;-86
2020/12/09 14:13:32;;;;;;;;;;;3.20;99.90;;;;;;5012874;28;19916;-86
2020/12/09 14:15:58;;;;;;;;;;;3.20;99.90;;;;;;5013107;28;19910;-86
2020/12/09 14:18:23;;;;;;;;;;;3.20;99.90;;;;;;5012959;28;19936;-87
2020/12/09 14:20:56;;;;;;;;;;;3.10;99.90;;;;;;5012983;28;19921;-85
2020/12/09 14:23:24;;;;;;;;;;;3.10;99.90;;;;;;5013044;28;20304;-86
2020/12/09 14:25:49;;;;;;;;;;;3.10;99.90;;;;;;5012950;28;19916;-86
2020/12/09 14:28:15;;;;;;;;;;;3.10;99.90;;;;;;5012624;28;20425;-86
2020/12/09 14:30:43;;;;;;;;;;;3.10;99.90;;;;;;5012906;28;19909;-85
2020/12/09 14:33:11;;;;;;;;;;;3.10;99.90;;;;;;5012936;28;20008;-85
2020/12/09 14:35:39;;;;;;;;;;;3.10;99.90;;;;;;5012592;28;19916;-84